Terminal Aerodrome Forecast
Issued by NWS

Home | Current Version | Previous Version | Text Only | Print | Product List | Glossary On
Versions: 1 2 3 4 5 6 7 8 9 10 11 12 13 14 15 16 17 18 19 20 21 22 23 24 25 26 27 28 29 30 31 32 33 34 35 36 37 38 39
000
FTUS41 KCTP 231743
TAFLNS
TAF
KLNS 231743Z 2318/2418 33012G25KT P6SM BKN030 OVC070
     FM231900 32019G31KT P6SM BKN045
     FM232300 32014KT P6SM BKN050
     FM241300 30012G20KT P6SM SKC=

USA.gov is the U.S. government's official web portal to all federal, state and local government web resources and services.